Time;durP1;ratioP1;P1;durP2;ratioP2;P2;SDS_P1;SDS_P2;PMS_P1;PMS_P2;Temp;Humidity;BMP_temperature;BMP_pressure;BME280_temperature;BME280_humidity;BME280_pressure;Samples;Min_cycle;Max_cycle;Signal;HPM_P1;HPM_P2
2021/01/07 00:02:09;;;;;;;;;;;20.50;98.20;;;;;;5032545;28;19923;-84
2021/01/07 00:04:35;;;;;;;;;;;20.40;99.00;;;;;;5021477;28;19917;-83
2021/01/07 00:07:02;;;;;;;;;;;20.30;99.30;;;;;;5025588;28;19913;-84
2021/01/07 00:09:29;;;;;;;;;;;20.10;99.90;;;;;;5033349;28;19988;-84
2021/01/07 00:11:57;;;;;;;;;;;20.10;99.90;;;;;;5034214;28;19917;-85
2021/01/07 00:14:25;;;;;;;;;;;20.20;99.90;;;;;;5034096;28;19913;-84
2021/01/07 00:16:51;;;;;;;;;;;20.20;99.50;;;;;;5035119;28;20367;-83
2021/01/07 00:19:18;;;;;;;;;;;20.40;99.60;;;;;;5034381;28;19913;-83
2021/01/07 00:21:45;;;;;;;;;;;20.60;98.40;;;;;;5035405;28;19968;-82
2021/01/07 00:24:11;;;;;;;;;;;20.50;99.90;;;;;;5038854;28;19909;-84
2021/01/07 00:26:38;;;;;;;;;;;20.10;99.90;;;;;;5034052;28;19995;-83
2021/01/07 00:29:06;;;;;;;;;;;19.90;99.90;;;;;;5017975;28;19914;-82
2021/01/07 00:31:33;;;;;;;;;;;19.80;99.90;;;;;;5035249;28;19922;-84
2021/01/07 00:34:00;;;;;;;;;;;19.80;99.90;;;;;;5038286;28;19909;-83
2021/01/07 00:36:26;;;;;;;;;;;19.80;99.90;;;;;;5037455;28;19913;-83
2021/01/07 00:38:53;;;;;;;;;;;19.90;99.90;;;;;;5041904;28;19909;-84
2021/01/07 00:41:21;;;;;;;;;;;20.00;99.90;;;;;;5041394;28;20454;-83
2021/01/07 00:43:48;;;;;;;;;;;19.90;99.90;;;;;;5038592;28;19920;-82
2021/01/07 00:46:15;;;;;;;;;;;20.20;99.90;;;;;;5041655;28;19921;-81
2021/01/07 00:48:42;;;;;;;;;;;20.20;99.90;;;;;;5039889;28;19924;-83
2021/01/07 00:51:09;;;;;;;;;;;20.30;99.90;;;;;;5036665;28;20007;-83
2021/01/07 00:53:35;;;;;;;;;;;20.50;99.90;;;;;;5035906;28;19968;-82
2021/01/07 00:56:02;;;;;;;;;;;20.50;99.20;;;;;;5036037;28;19913;-82
2021/01/07 00:58:29;;;;;;;;;;;20.20;99.90;;;;;;5036071;28;19916;-83
2021/01/07 01:00:56;;;;;;;;;;;19.90;99.90;;;;;;5036222;28;19909;-83
2021/01/07 01:03:23;;;;;;;;;;;19.90;99.90;;;;;;5035969;28;19948;-84
2021/01/07 01:05:50;;;;;;;;;;;20.40;99.90;;;;;;5035687;28;19909;-83
2021/01/07 01:08:17;;;;;;;;;;;20.80;99.90;;;;;;5036088;28;19909;-83
2021/01/07 01:10:44;;;;;;;;;;;20.70;99.90;;;;;;5019094;28;20032;-83
2021/01/07 01:13:11;;;;;;;;;;;20.30;99.90;;;;;;5044242;28;19940;-83
2021/01/07 01:15:38;;;;;;;;;;;20.10;99.90;;;;;;5059211;28;19977;-83
2021/01/07 01:18:05;;;;;;;;;;;19.70;99.90;;;;;;5022041;28;19917;-84
2021/01/07 01:20:32;;;;;;;;;;;19.50;99.90;;;;;;5036993;28;19910;-82
2021/01/07 01:22:59;;;;;;;;;;;19.50;99.90;;;;;;5035638;28;19909;-82
2021/01/07 01:25:26;;;;;;;;;;;19.30;99.90;;;;;;5034830;28;19913;-82
2021/01/07 01:27:53;;;;;;;;;;;19.30;99.90;;;;;;5036469;28;19913;-85
2021/01/07 01:30:20;;;;;;;;;;;19.30;99.90;;;;;;5036679;28;19917;-83
2021/01/07 01:32:47;;;;;;;;;;;19.10;99.90;;;;;;5036897;28;19916;-84
2021/01/07 01:35:14;;;;;;;;;;;19.00;99.90;;;;;;5035548;28;19909;-83
2021/01/07 01:37:44;;;;;;;;;;;18.80;99.90;;;;;;5036529;28;19913;-82
2021/01/07 01:40:12;;;;;;;;;;;18.80;99.90;;;;;;5037983;28;19913;-83
2021/01/07 01:42:42;;;;;;;;;;;18.80;99.90;;;;;;5041632;28;19915;-81
2021/01/07 01:45:09;;;;;;;;;;;18.70;99.90;;;;;;5054613;28;19908;-82
2021/01/07 01:47:35;;;;;;;;;;;18.60;99.90;;;;;;5055963;28;19924;-82
2021/01/07 01:50:02;;;;;;;;;;;18.70;99.90;;;;;;5038083;28;19913;-82
2021/01/07 01:52:29;;;;;;;;;;;18.50;99.90;;;;;;5055211;28;19996;-82
2021/01/07 01:54:56;;;;;;;;;;;18.50;99.90;;;;;;5055431;28;19978;-82
2021/01/07 01:57:23;;;;;;;;;;;18.40;99.90;;;;;;5056396;28;20000;-82
2021/01/07 01:59:50;;;;;;;;;;;18.40;99.90;;;;;;5057140;28;19962;-82
2021/01/07 02:02:20;;;;;;;;;;;18.40;99.90;;;;;;5038935;28;19948;-82
2021/01/07 02:04:47;;;;;;;;;;;18.50;99.90;;;;;;5039783;28;19909;-83
2021/01/07 02:07:15;;;;;;;;;;;18.50;99.90;;;;;;5016639;28;19917;-81
2021/01/07 02:09:47;;;;;;;;;;;18.60;99.90;;;;;;5016265;28;19917;-82
2021/01/07 02:12:36;;;;;;;;;;;18.60;99.90;;;;;;5035074;28;19932;-81
2021/01/07 02:15:03;;;;;;;;;;;18.60;99.90;;;;;;5022103;28;19917;-82
2021/01/07 02:17:30;;;;;;;;;;;18.70;99.90;;;;;;5036030;28;19961;-81
2021/01/07 02:19:58;;;;;;;;;;;18.90;99.90;;;;;;5035651;28;19913;-81
2021/01/07 02:22:25;;;;;;;;;;;18.90;99.90;;;;;;5037345;28;19920;-81
2021/01/07 02:24:51;;;;;;;;;;;19.00;99.90;;;;;;5036750;28;19945;-82
2021/01/07 02:27:18;;;;;;;;;;;19.10;99.90;;;;;;5038202;28;19964;-82
2021/01/07 02:29:44;;;;;;;;;;;19.10;99.90;;;;;;5035007;28;19913;-82
2021/01/07 02:32:12;;;;;;;;;;;19.20;99.90;;;;;;5035144;28;20005;-82
2021/01/07 02:34:39;;;;;;;;;;;19.10;99.90;;;;;;5035458;28;19913;-82
2021/01/07 02:37:06;;;;;;;;;;;19.00;99.90;;;;;;5034462;28;19917;-82
2021/01/07 02:39:33;;;;;;;;;;;19.10;99.90;;;;;;5035330;28;19909;-82
2021/01/07 02:41:59;;;;;;;;;;;19.20;99.90;;;;;;5033860;28;19921;-83
2021/01/07 02:44:26;;;;;;;;;;;19.30;99.90;;;;;;5034513;28;19913;-83
2021/01/07 02:46:53;;;;;;;;;;;19.30;99.90;;;;;;5050103;28;19932;-81
2021/01/07 02:49:20;;;;;;;;;;;19.10;99.90;;;;;;5047671;28;20310;-82
2021/01/07 02:51:49;;;;;;;;;;;19.00;99.90;;;;;;5033040;28;19983;-81
2021/01/07 02:54:16;;;;;;;;;;;19.00;99.90;;;;;;5034133;28;20032;-80
2021/01/07 02:56:42;;;;;;;;;;;18.90;99.90;;;;;;5033617;28;20426;-82
2021/01/07 02:59:09;;;;;;;;;;;18.80;99.90;;;;;;5020282;28;19913;-82
2021/01/07 03:01:36;;;;;;;;;;;18.50;99.90;;;;;;5032769;28;19961;-79
2021/01/07 03:04:02;;;;;;;;;;;18.40;99.90;;;;;;5047130;28;19901;-81
2021/01/07 03:06:29;;;;;;;;;;;18.30;99.90;;;;;;5036801;28;20305;-80
2021/01/07 03:08:56;;;;;;;;;;;18.20;99.90;;;;;;5033643;28;19960;-81
2021/01/07 03:11:22;;;;;;;;;;;18.30;99.90;;;;;;5033261;28;19922;-81
2021/01/07 03:13:49;;;;;;;;;;;18.30;99.90;;;;;;5033035;28;19940;-80
2021/01/07 03:16:16;;;;;;;;;;;18.40;99.90;;;;;;5033080;28;19917;-79
2021/01/07 03:18:42;;;;;;;;;;;18.60;99.90;;;;;;5032984;28;19913;-80
2021/01/07 03:21:09;;;;;;;;;;;18.60;99.90;;;;;;5012044;28;19995;-80
2021/01/07 03:23:36;;;;;;;;;;;18.60;99.90;;;;;;5032444;28;20031;-81
2021/01/07 03:26:05;;;;;;;;;;;18.50;99.90;;;;;;5032415;28;19913;-81
2021/01/07 03:28:32;;;;;;;;;;;18.60;99.90;;;;;;5033721;28;19913;-79
2021/01/07 03:30:59;;;;;;;;;;;18.70;99.90;;;;;;5010413;28;19917;-78
2021/01/07 03:33:25;;;;;;;;;;;18.70;99.90;;;;;;5013062;28;19917;-80
2021/01/07 03:35:53;;;;;;;;;;;18.90;99.90;;;;;;5014104;28;19909;-81
2021/01/07 03:38:20;;;;;;;;;;;18.90;99.90;;;;;;5009847;28;19917;-78
2021/01/07 03:40:49;;;;;;;;;;;19.20;99.90;;;;;;5032294;28;19920;-78
2021/01/07 03:43:16;;;;;;;;;;;19.30;99.90;;;;;;5032437;28;19917;-79
2021/01/07 03:45:43;;;;;;;;;;;19.40;99.90;;;;;;5032139;28;19956;-78
2021/01/07 03:48:09;;;;;;;;;;;19.50;99.90;;;;;;5039285;28;19921;-78
2021/01/07 03:50:36;;;;;;;;;;;19.50;99.90;;;;;;5032094;28;20030;-78
2021/01/07 03:53:03;;;;;;;;;;;19.50;99.90;;;;;;5032181;28;19952;-77
2021/01/07 03:55:30;;;;;;;;;;;19.50;99.90;;;;;;5032085;28;20431;-78
2021/01/07 03:57:59;;;;;;;;;;;19.60;99.90;;;;;;5031705;28;19921;-79
2021/01/07 04:00:26;;;;;;;;;;;19.60;99.90;;;;;;5032603;28;19928;-78
2021/01/07 04:02:53;;;;;;;;;;;19.60;99.90;;;;;;5014247;28;20436;-78
2021/01/07 04:05:19;;;;;;;;;;;19.60;99.90;;;;;;5032417;28;19936;-80
2021/01/07 04:07:46;;;;;;;;;;;19.60;99.90;;;;;;5010363;28;19913;-79
2021/01/07 04:10:15;;;;;;;;;;;19.80;99.90;;;;;;4995401;28;20235;-79
2021/01/07 04:12:41;;;;;;;;;;;19.80;99.90;;;;;;5012821;28;20268;-78
2021/01/07 04:15:08;;;;;;;;;;;19.90;99.90;;;;;;5012748;28;20260;-79
2021/01/07 04:17:35;;;;;;;;;;;19.90;99.90;;;;;;5006215;28;20012;-79
2021/01/07 04:20:01;;;;;;;;;;;20.10;99.90;;;;;;5030799;28;19917;-80
2021/01/07 04:22:29;;;;;;;;;;;20.10;99.90;;;;;;5009284;28;20427;-80
2021/01/07 04:25:01;;;;;;;;;;;20.20;99.90;;;;;;5031564;28;19920;-79
2021/01/07 04:27:27;;;;;;;;;;;20.30;99.90;;;;;;5013653;28;19917;-78
2021/01/07 04:29:54;;;;;;;;;;;20.40;99.90;;;;;;5031785;28;19960;-81
2021/01/07 04:32:21;;;;;;;;;;;20.40;99.90;;;;;;5033993;28;19917;-79
2021/01/07 04:34:48;;;;;;;;;;;20.50;99.90;;;;;;5035291;28;19904;-79
2021/01/07 04:37:14;;;;;;;;;;;20.50;99.90;;;;;;5052515;28;19997;-80
2021/01/07 04:39:41;;;;;;;;;;;20.60;99.90;;;;;;5032601;28;20074;-79
2021/01/07 04:42:07;;;;;;;;;;;20.50;99.90;;;;;;5029036;28;20352;-80
2021/01/07 04:44:36;;;;;;;;;;;20.60;99.90;;;;;;5031418;28;19949;-80
2021/01/07 04:47:03;;;;;;;;;;;20.60;99.90;;;;;;5031341;28;19925;-81
2021/01/07 04:49:30;;;;;;;;;;;20.70;99.70;;;;;;5031733;28;19925;-82
2021/01/07 04:52:00;;;;;;;;;;;20.80;99.70;;;;;;5032270;28;20399;-82
2021/01/07 04:54:27;;;;;;;;;;;20.80;99.20;;;;;;5014872;28;20298;-81
2021/01/07 04:56:54;;;;;;;;;;;20.90;98.50;;;;;;5015405;28;19916;-78
2021/01/07 04:59:21;;;;;;;;;;;20.90;98.40;;;;;;5032177;28;19993;-79
2021/01/07 05:01:48;;;;;;;;;;;20.90;97.10;;;;;;5026389;28;19917;-79
2021/01/07 05:04:18;;;;;;;;;;;20.90;97.80;;;;;;5032185;28;19913;-82
2021/01/07 05:06:45;;;;;;;;;;;21.10;98.40;;;;;;5024568;28;19971;-79
2021/01/07 05:09:11;;;;;;;;;;;21.20;96.80;;;;;;5031216;28;19919;-80
2021/01/07 05:11:38;;;;;;;;;;;21.30;95.90;;;;;;5031416;28;20044;-80
2021/01/07 05:14:09;;;;;;;;;;;21.40;95.50;;;;;;5032349;28;19933;-79
2021/01/07 05:16:36;;;;;;;;;;;21.60;94.50;;;;;;5031850;28;19921;-78
2021/01/07 05:19:07;;;;;;;;;;;21.50;94.50;;;;;;5032598;28;20191;-79
2021/01/07 05:21:34;;;;;;;;;;;21.60;95.40;;;;;;5016992;28;20395;-79
2021/01/07 05:24:02;;;;;;;;;;;21.70;94.80;;;;;;5035426;28;20009;-80
2021/01/07 05:26:29;;;;;;;;;;;21.60;93.60;;;;;;5035045;28;19913;-80
2021/01/07 05:28:56;;;;;;;;;;;21.50;93.80;;;;;;5035858;28;19958;-79
2021/01/07 05:31:24;;;;;;;;;;;21.40;93.70;;;;;;5035080;28;19932;-79
2021/01/07 05:33:51;;;;;;;;;;;21.40;93.90;;;;;;5035732;28;19915;-80
2021/01/07 05:36:25;;;;;;;;;;;21.20;93.90;;;;;;5029526;28;19913;-80
2021/01/07 05:38:53;;;;;;;;;;;21.20;94.10;;;;;;5033168;28;19913;-80
2021/01/07 05:41:21;;;;;;;;;;;21.20;93.60;;;;;;5016349;28;19913;-80
2021/01/07 05:43:57;;;;;;;;;;;21.10;93.60;;;;;;5046719;28;19944;-80
2021/01/07 05:46:24;;;;;;;;;;;21.20;93.60;;;;;;5055169;28;19928;-81
2021/01/07 05:48:54;;;;;;;;;;;21.20;93.20;;;;;;5037714;28;19917;-84
2021/01/07 05:51:26;;;;;;;;;;;21.20;93.20;;;;;;5033164;28;19917;-82
2021/01/07 05:53:56;;;;;;;;;;;21.20;93.70;;;;;;5027894;28;19918;-79
2021/01/07 05:56:23;;;;;;;;;;;21.20;92.80;;;;;;5028821;28;19913;-82
2021/01/07 05:58:51;;;;;;;;;;;21.20;92.60;;;;;;5032237;28;19909;-82
2021/01/07 06:01:19;;;;;;;;;;;21.20;93.10;;;;;;5032914;28;20368;-83
2021/01/07 06:03:51;;;;;;;;;;;21.20;94.00;;;;;;5032016;28;19921;-83
2021/01/07 06:06:18;;;;;;;;;;;20.80;98.00;;;;;;5030199;28;19929;-82
2021/01/07 06:08:48;;;;;;;;;;;20.40;99.90;;;;;;5032072;28;19932;-80
2021/01/07 06:11:19;;;;;;;;;;;20.10;99.90;;;;;;5037662;28;19925;-82
2021/01/07 06:13:52;;;;;;;;;;;20.00;99.90;;;;;;5033386;28;20050;-85
2021/01/07 06:16:20;;;;;;;;;;;20.00;99.90;;;;;;5032524;28;19925;-85
2021/01/07 06:18:47;;;;;;;;;;;20.00;99.90;;;;;;5033165;28;19920;-84
2021/01/07 06:21:15;;;;;;;;;;;19.90;99.70;;;;;;5032128;28;20426;-85
2021/01/07 06:23:48;;;;;;;;;;;19.90;99.60;;;;;;5014178;28;20382;-83
2021/01/07 06:26:32;;;;;;;;;;;19.90;99.50;;;;;;5016841;28;19913;-82
2021/01/07 06:28:59;;;;;;;;;;;20.10;99.00;;;;;;5032878;28;19919;-83
2021/01/07 06:31:37;;;;;;;;;;;20.20;98.80;;;;;;5032369;28;20263;-82
2021/01/07 06:34:04;;;;;;;;;;;20.20;97.30;;;;;;5032591;28;20012;-84
2021/01/07 06:36:37;;;;;;;;;;;20.20;96.90;;;;;;5031920;28;20418;-83
2021/01/07 06:39:06;;;;;;;;;;;20.20;96.80;;;;;;5014033;28;19917;-81
2021/01/07 06:41:34;;;;;;;;;;;20.30;96.70;;;;;;5041964;28;19972;-85
2021/01/07 06:44:06;;;;;;;;;;;20.40;96.40;;;;;;5049261;28;20397;-83
2021/01/07 06:46:47;;;;;;;;;;;20.40;96.00;;;;;;5031488;28;20410;-84
2021/01/07 06:49:25;;;;;;;;;;;20.50;96.80;;;;;;5012846;28;20292;-84
2021/01/07 06:51:54;;;;;;;;;;;20.60;96.20;;;;;;5013226;28;20354;-86
2021/01/07 06:54:22;;;;;;;;;;;20.70;96.50;;;;;;5029147;28;19945;-82
2021/01/07 06:56:52;;;;;;;;;;;20.70;96.70;;;;;;5034392;28;19956;-83
2021/01/07 06:59:20;;;;;;;;;;;20.90;95.80;;;;;;5031943;28;19977;-81
2021/01/07 07:01:48;;;;;;;;;;;21.00;94.90;;;;;;5031287;28;19917;-79
2021/01/07 07:04:23;;;;;;;;;;;21.00;94.40;;;;;;5032147;28;19913;-82
2021/01/07 07:06:58;;;;;;;;;;;21.00;95.40;;;;;;5031317;28;19913;-83
2021/01/07 07:09:32;;;;;;;;;;;20.90;95.90;;;;;;5030217;28;19957;-80
2021/01/07 07:11:58;;;;;;;;;;;20.80;95.80;;;;;;5031181;28;19923;-82
2021/01/07 07:14:31;;;;;;;;;;;20.70;95.60;;;;;;5011925;28;19960;-81
2021/01/07 07:16:58;;;;;;;;;;;20.60;96.10;;;;;;4996506;28;20008;-82
2021/01/07 07:19:25;;;;;;;;;;;20.50;96.40;;;;;;5031086;28;19982;-85
2021/01/07 07:21:56;;;;;;;;;;;20.50;96.80;;;;;;5030632;28;19917;-82
2021/01/07 07:24:45;;;;;;;;;;;20.50;97.40;;;;;;5031589;28;20229;-87
2021/01/07 07:27:14;;;;;;;;;;;20.50;97.50;;;;;;5029552;28;19967;-85
2021/01/07 07:29:47;;;;;;;;;;;20.40;97.80;;;;;;5014060;28;19909;-83
2021/01/07 07:32:21;;;;;;;;;;;20.40;97.80;;;;;;5032961;28;19925;-86
2021/01/07 07:34:51;;;;;;;;;;;20.30;97.90;;;;;;5015280;28;19916;-86
2021/01/07 07:37:25;;;;;;;;;;;20.30;98.20;;;;;;5014373;28;19909;-86
2021/01/07 07:39:59;;;;;;;;;;;20.30;98.70;;;;;;5037814;28;20374;-84
2021/01/07 07:42:27;;;;;;;;;;;20.30;98.60;;;;;;5032867;28;20480;-82
2021/01/07 07:44:54;;;;;;;;;;;20.20;98.50;;;;;;5014949;28;20467;-84
2021/01/07 07:47:22;;;;;;;;;;;20.10;98.00;;;;;;5020910;28;19921;-83
2021/01/07 07:49:56;;;;;;;;;;;20.10;98.50;;;;;;5029561;28;19928;-82
2021/01/07 07:52:23;;;;;;;;;;;20.10;97.60;;;;;;5031016;28;19924;-83
2021/01/07 07:54:59;;;;;;;;;;;20.00;97.70;;;;;;5032964;28;19909;-84
2021/01/07 07:57:26;;;;;;;;;;;20.00;98.10;;;;;;5032177;28;19913;-82
2021/01/07 07:59:54;;;;;;;;;;;19.90;98.30;;;;;;5004908;28;19918;-86
2021/01/07 08:02:21;;;;;;;;;;;19.90;97.60;;;;;;4998560;28;19910;-80
2021/01/07 08:04:47;;;;;;;;;;;19.90;97.30;;;;;;4996046;28;19963;-80
2021/01/07 08:07:14;;;;;;;;;;;19.90;97.10;;;;;;5027085;28;19920;-81
2021/01/07 08:09:41;;;;;;;;;;;19.90;97.10;;;;;;5032418;28;19909;-82
2021/01/07 08:12:08;;;;;;;;;;;19.90;96.90;;;;;;5037005;28;20011;-84
2021/01/07 08:14:40;;;;;;;;;;;19.80;96.90;;;;;;5040470;28;19973;-85
2021/01/07 08:17:07;;;;;;;;;;;19.70;97.40;;;;;;5038943;28;19910;-86
2021/01/07 08:19:45;;;;;;;;;;;19.70;97.80;;;;;;5039214;28;19909;-85
2021/01/07 08:22:12;;;;;;;;;;;19.70;97.60;;;;;;5039576;28;19944;-85
2021/01/07 08:24:41;;;;;;;;;;;19.70;97.40;;;;;;5031203;28;19913;-86
2021/01/07 08:27:21;;;;;;;;;;;19.70;97.80;;;;;;5019453;28;19910;-85
2021/01/07 08:29:53;;;;;;;;;;;19.80;97.70;;;;;;5033267;28;19920;-86
2021/01/07 08:32:28;;;;;;;;;;;19.70;97.70;;;;;;5028238;28;19913;-86
2021/01/07 08:34:55;;;;;;;;;;;19.80;97.90;;;;;;5038021;28;19920;-86
2021/01/07 08:37:31;;;;;;;;;;;19.80;98.10;;;;;;5034867;28;19909;-85
2021/01/07 08:40:03;;;;;;;;;;;19.90;97.90;;;;;;5048720;28;19919;-85
2021/01/07 08:42:36;;;;;;;;;;;19.90;97.70;;;;;;5044691;28;19924;-83
2021/01/07 08:45:06;;;;;;;;;;;19.90;97.50;;;;;;5054346;28;19956;-85
2021/01/07 08:47:33;;;;;;;;;;;19.90;97.60;;;;;;5037418;28;19924;-86
2021/01/07 08:50:03;;;;;;;;;;;19.90;97.70;;;;;;5036603;28;19963;-85
2021/01/07 08:52:30;;;;;;;;;;;19.90;97.30;;;;;;5040456;28;19919;-85
2021/01/07 08:54:57;;;;;;;;;;;19.80;98.70;;;;;;5043699;28;19914;-84
2021/01/07 08:57:23;;;;;;;;;;;19.50;99.70;;;;;;5021073;28;19913;-87
2021/01/07 08:59:50;;;;;;;;;;;19.30;99.90;;;;;;5039072;28;19910;-85
2021/01/07 09:02:20;;;;;;;;;;;19.20;99.90;;;;;;5057356;28;19909;-85
2021/01/07 09:04:51;;;;;;;;;;;19.20;99.90;;;;;;5035671;28;19924;-84
2021/01/07 09:07:18;;;;;;;;;;;19.20;99.90;;;;;;5036741;28;20648;-85
2021/01/07 09:09:52;;;;;;;;;;;19.20;99.90;;;;;;5038541;28;20229;-85
2021/01/07 09:12:20;;;;;;;;;;;19.20;99.90;;;;;;5041628;28;20055;-85
2021/01/07 09:15:21;;;;;;;;;;;19.30;99.90;;;;;;5058782;28;20360;-83
2021/01/07 09:17:47;;;;;;;;;;;19.30;99.90;;;;;;5057590;28;20271;-83
2021/01/07 09:20:15;;;;;;;;;;;19.30;99.90;;;;;;5041480;28;19909;-85
2021/01/07 09:22:42;;;;;;;;;;;19.30;99.80;;;;;;5037907;28;19916;-84
2021/01/07 09:25:15;;;;;;;;;;;19.30;99.90;;;;;;5029960;28;20284;-84
2021/01/07 09:27:41;;;;;;;;;;;19.30;99.70;;;;;;5017631;28;19910;-85
2021/01/07 09:30:08;;;;;;;;;;;19.30;99.60;;;;;;5017604;28;19968;-84
2021/01/07 09:32:35;;;;;;;;;;;19.30;98.80;;;;;;4998840;28;19977;-81
2021/01/07 09:35:02;;;;;;;;;;;19.30;98.20;;;;;;5018500;28;19910;-82
2021/01/07 09:37:28;;;;;;;;;;;19.30;97.20;;;;;;5031376;28;19956;-82
2021/01/07 09:39:55;;;;;;;;;;;19.30;96.60;;;;;;5016529;28;19909;-81
2021/01/07 09:42:25;;;;;;;;;;;19.40;95.80;;;;;;5015126;28;20280;-82
2021/01/07 09:44:52;;;;;;;;;;;19.40;95.50;;;;;;5017041;28;20000;-87
2021/01/07 09:47:19;;;;;;;;;;;19.40;95.30;;;;;;5023110;28;19940;-83
2021/01/07 09:49:46;;;;;;;;;;;19.40;95.40;;;;;;5012494;28;19966;-81
2021/01/07 09:52:12;;;;;;;;;;;19.40;95.20;;;;;;5017920;28;19909;-82
2021/01/07 09:54:39;;;;;;;;;;;19.40;95.10;;;;;;5036074;28;19916;-80
2021/01/07 09:57:06;;;;;;;;;;;19.30;94.80;;;;;;5034999;28;19924;-81
2021/01/07 09:59:33;;;;;;;;;;;19.30;95.00;;;;;;5035504;28;19921;-88
2021/01/07 10:02:01;;;;;;;;;;;19.40;94.90;;;;;;5026544;28;19921;-82
2021/01/07 10:04:31;;;;;;;;;;;19.30;95.20;;;;;;5034154;28;19913;-83
2021/01/07 10:06:58;;;;;;;;;;;19.30;95.20;;;;;;5033891;28;19909;-81
2021/01/07 10:09:25;;;;;;;;;;;19.30;95.40;;;;;;5033604;28;20356;-83
2021/01/07 10:11:59;;;;;;;;;;;19.30;95.20;;;;;;5017686;28;19960;-82
2021/01/07 10:14:27;;;;;;;;;;;19.40;95.50;;;;;;5015890;28;19921;-80
2021/01/07 10:16:55;;;;;;;;;;;19.30;97.40;;;;;;5015715;28;19913;-84
2021/01/07 10:19:23;;;;;;;;;;;19.20;97.70;;;;;;5016583;28;20387;-80
2021/01/07 10:21:55;;;;;;;;;;;19.20;97.90;;;;;;5035280;28;19913;-82
2021/01/07 10:24:22;;;;;;;;;;;19.20;98.30;;;;;;5035845;28;19909;-82
2021/01/07 10:26:49;;;;;;;;;;;19.10;97.30;;;;;;5033964;28;19913;-82
2021/01/07 10:29:15;;;;;;;;;;;19.10;97.00;;;;;;5031390;28;19975;-83
2021/01/07 10:31:42;;;;;;;;;;;19.00;96.00;;;;;;5033598;28;20076;-85
2021/01/07 10:34:09;;;;;;;;;;;19.10;95.60;;;;;;5019120;28;19914;-84
2021/01/07 10:36:36;;;;;;;;;;;19.00;94.90;;;;;;5029117;28;19936;-85
2021/01/07 10:39:04;;;;;;;;;;;19.00;94.60;;;;;;5034571;28;19909;-83
2021/01/07 10:41:30;;;;;;;;;;;19.00;94.30;;;;;;5033473;28;19913;-84
2021/01/07 10:44:01;;;;;;;;;;;19.00;94.30;;;;;;5034703;28;19917;-82
2021/01/07 10:46:36;;;;;;;;;;;19.00;93.40;;;;;;5034772;28;19996;-85
2021/01/07 10:49:03;;;;;;;;;;;19.00;93.30;;;;;;5016803;28;20012;-84
2021/01/07 10:51:38;;;;;;;;;;;19.10;92.80;;;;;;5023747;28;19917;-84
2021/01/07 10:54:08;;;;;;;;;;;19.00;92.60;;;;;;5034479;28;20303;-83
2021/01/07 10:56:45;;;;;;;;;;;19.00;92.20;;;;;;5017164;28;19917;-82
2021/01/07 10:59:29;;;;;;;;;;;19.00;92.30;;;;;;5033664;28;20012;-82
2021/01/07 11:02:14;;;;;;;;;;;19.10;92.30;;;;;;5032231;28;19913;-85
2021/01/07 11:04:56;;;;;;;;;;;19.10;92.20;;;;;;5033926;28;19974;-85
2021/01/07 11:07:31;;;;;;;;;;;19.10;92.40;;;;;;5014146;28;20004;-85
2021/01/07 11:10:06;;;;;;;;;;;19.10;92.30;;;;;;4996380;28;20232;-81
2021/01/07 11:12:49;;;;;;;;;;;19.10;92.10;;;;;;5030521;28;19913;-85
2021/01/07 11:15:21;;;;;;;;;;;19.20;92.20;;;;;;5034035;28;19986;-85
2021/01/07 11:17:56;;;;;;;;;;;19.10;92.20;;;;;;5031983;28;19956;-84
2021/01/07 11:20:26;;;;;;;;;;;19.10;92.10;;;;;;5033641;28;19940;-85
2021/01/07 11:22:54;;;;;;;;;;;19.10;92.10;;;;;;5032462;28;20051;-85
2021/01/07 11:25:22;;;;;;;;;;;19.00;91.70;;;;;;5032619;28;19909;-85
2021/01/07 11:27:49;;;;;;;;;;;19.00;91.40;;;;;;5015352;28;19939;-85
2021/01/07 11:30:16;;;;;;;;;;;19.00;91.40;;;;;;5034200;28;19940;-84
2021/01/07 11:32:45;;;;;;;;;;;18.90;91.20;;;;;;5033074;28;19909;-85
2021/01/07 11:35:13;;;;;;;;;;;18.90;91.70;;;;;;5015771;28;19953;-85
2021/01/07 11:37:43;;;;;;;;;;;18.80;91.20;;;;;;5032789;28;19936;-85
2021/01/07 11:40:29;;;;;;;;;;;18.80;91.00;;;;;;5015869;28;20318;-83
2021/01/07 11:42:56;;;;;;;;;;;18.80;91.30;;;;;;5031172;28;19959;-86
2021/01/07 11:45:38;;;;;;;;;;;18.80;90.90;;;;;;5032618;28;19959;-85
2021/01/07 11:48:08;;;;;;;;;;;18.80;91.00;;;;;;5029885;28;19972;-82
2021/01/07 11:50:37;;;;;;;;;;;18.70;91.20;;;;;;5032648;28;19917;-85
2021/01/07 11:53:07;;;;;;;;;;;18.70;90.90;;;;;;5032897;28;20285;-84
2021/01/07 11:55:34;;;;;;;;;;;18.70;90.80;;;;;;5033336;28;19932;-84
2021/01/07 11:58:04;;;;;;;;;;;18.70;90.80;;;;;;5032909;28;19913;-84
2021/01/07 12:00:31;;;;;;;;;;;18.70;90.40;;;;;;5012484;28;19917;-85
2021/01/07 12:02:57;;;;;;;;;;;18.70;90.40;;;;;;5002985;28;19916;-84
2021/01/07 12:05:25;;;;;;;;;;;18.70;89.70;;;;;;5032941;28;19916;-86
2021/01/07 12:07:54;;;;;;;;;;;18.70;88.50;;;;;;5011921;28;19910;-85
2021/01/07 12:10:24;;;;;;;;;;;18.70;88.20;;;;;;5014564;28;19917;-85
2021/01/07 12:13:11;;;;;;;;;;;18.70;89.00;;;;;;5033101;28;19933;-85
2021/01/07 12:15:41;;;;;;;;;;;18.70;89.20;;;;;;5025990;28;19922;-86
2021/01/07 12:18:09;;;;;;;;;;;18.60;89.50;;;;;;5032932;28;19917;-85
2021/01/07 12:20:36;;;;;;;;;;;18.70;89.50;;;;;;5013096;28;20358;-83
2021/01/07 12:23:06;;;;;;;;;;;18.70;89.80;;;;;;5014106;28;19910;-88
2021/01/07 12:25:32;;;;;;;;;;;18.70;90.20;;;;;;5014165;28;19917;-86
2021/01/07 12:28:04;;;;;;;;;;;18.70;90.10;;;;;;5024793;28;20055;-84
2021/01/07 12:30:34;;;;;;;;;;;18.70;90.00;;;;;;5032644;28;19925;-86
2021/01/07 12:33:21;;;;;;;;;;;18.70;89.20;;;;;;5033576;28;19915;-85
2021/01/07 12:36:09;;;;;;;;;;;18.70;89.40;;;;;;5032634;28;19913;-81
2021/01/07 12:38:57;;;;;;;;;;;18.70;88.70;;;;;;4998904;28;20316;-83
2021/01/07 12:41:27;;;;;;;;;;;18.70;89.30;;;;;;5031133;28;19953;-86
2021/01/07 12:43:56;;;;;;;;;;;18.60;89.70;;;;;;5033222;28;19920;-84
2021/01/07 12:46:26;;;;;;;;;;;18.60;90.00;;;;;;5033062;28;20279;-82
2021/01/07 12:48:54;;;;;;;;;;;18.60;90.50;;;;;;5033151;28;20059;-85
2021/01/07 12:51:21;;;;;;;;;;;18.60;89.80;;;;;;5015037;28;20355;-84
2021/01/07 12:53:48;;;;;;;;;;;18.50;90.20;;;;;;5033242;28;19916;-85
2021/01/07 12:56:20;;;;;;;;;;;18.50;89.50;;;;;;5015763;28;19919;-84
2021/01/07 12:58:48;;;;;;;;;;;18.60;90.00;;;;;;5033149;28;19920;-84
2021/01/07 13:01:21;;;;;;;;;;;18.60;89.70;;;;;;5032310;28;20044;-84
2021/01/07 13:03:48;;;;;;;;;;;18.50;89.30;;;;;;5027932;28;20330;-85
2021/01/07 13:06:32;;;;;;;;;;;18.50;89.80;;;;;;5030777;28;19919;-83
2021/01/07 13:08:59;;;;;;;;;;;18.50;90.10;;;;;;5013219;28;20291;-85
2021/01/07 13:11:28;;;;;;;;;;;18.50;90.30;;;;;;5031617;28;19921;-85
2021/01/07 13:14:02;;;;;;;;;;;18.50;88.70;;;;;;5032805;28;19998;-85
2021/01/07 13:16:33;;;;;;;;;;;18.50;88.30;;;;;;5032526;28;20363;-85
2021/01/07 13:19:01;;;;;;;;;;;18.50;87.10;;;;;;5014756;28;19913;-84
2021/01/07 13:21:28;;;;;;;;;;;18.40;86.70;;;;;;5032120;28;20007;-85
2021/01/07 13:24:04;;;;;;;;;;;18.40;86.70;;;;;;5032732;28;20283;-85
2021/01/07 13:26:32;;;;;;;;;;;18.50;86.80;;;;;;5032779;28;19917;-84
2021/01/07 13:29:10;;;;;;;;;;;18.50;86.80;;;;;;5032347;28;19913;-84
2021/01/07 13:31:40;;;;;;;;;;;18.50;86.90;;;;;;5032123;28;19917;-85
2021/01/07 13:34:10;;;;;;;;;;;18.60;86.00;;;;;;5032339;28;19913;-85
2021/01/07 13:36:36;;;;;;;;;;;18.60;85.90;;;;;;5032754;28;19936;-86
2021/01/07 13:39:03;;;;;;;;;;;18.60;85.70;;;;;;5032020;28;20364;-82
2021/01/07 13:41:32;;;;;;;;;;;18.70;85.90;;;;;;5035315;28;20380;-83
2021/01/07 13:44:00;;;;;;;;;;;18.70;86.00;;;;;;5035935;28;19920;-84
2021/01/07 13:46:29;;;;;;;;;;;18.70;85.80;;;;;;5018442;28;19921;-84
2021/01/07 13:48:58;;;;;;;;;;;18.70;86.00;;;;;;5035839;28;20406;-85
2021/01/07 13:51:26;;;;;;;;;;;18.70;85.60;;;;;;5035377;28;19921;-86
2021/01/07 13:53:53;;;;;;;;;;;18.80;85.80;;;;;;5036251;28;19917;-85
2021/01/07 13:56:20;;;;;;;;;;;18.80;86.20;;;;;;5035744;28;20382;-85
2021/01/07 13:58:49;;;;;;;;;;;18.80;87.70;;;;;;5035453;28;19920;-84
2021/01/07 14:01:19;;;;;;;;;;;18.70;90.50;;;;;;5034765;28;19960;-83
2021/01/07 14:03:46;;;;;;;;;;;18.50;92.70;;;;;;5032570;28;19994;-84
2021/01/07 14:06:13;;;;;;;;;;;18.30;92.20;;;;;;5018231;28;19992;-83
2021/01/07 14:08:50;;;;;;;;;;;18.20;93.10;;;;;;5035126;28;19920;-83
2021/01/07 14:11:18;;;;;;;;;;;18.10;92.90;;;;;;5035727;28;19917;-84
2021/01/07 14:13:45;;;;;;;;;;;18.20;93.20;;;;;;5036105;28;19956;-84
2021/01/07 14:16:14;;;;;;;;;;;18.30;93.40;;;;;;5035801;28;19909;-82
2021/01/07 14:18:44;;;;;;;;;;;18.30;93.70;;;;;;5035853;28;19951;-85
2021/01/07 14:21:10;;;;;;;;;;;18.30;93.80;;;;;;5018520;28;20414;-85
2021/01/07 14:23:40;;;;;;;;;;;18.30;94.20;;;;;;5035394;28;19929;-84
2021/01/07 14:26:09;;;;;;;;;;;18.40;94.10;;;;;;5035446;28;19944;-84
2021/01/07 14:28:51;;;;;;;;;;;18.40;94.30;;;;;;5035578;28;19913;-84